Terminal Aerodrome Forecast
Issued by NWS

Home | Current Version | Previous Version | Graphics & Text | Print | Product List | Glossary On
Versions: 1 2 3 4 5 6 7 8 9 10 11 12 13 14 15 16 17 18 19 20 21 22 23 24 25 26 27 28 29 30 31 32 33 34 35 36 37 38 39
000
FTUS43 KLOT 062336
TAFORD
TAF
KORD 062336Z 0700/0806 18012KT P6SM SCT050 OVC100
     FM070100 19012KT P6SM VCSH SCT040 OVC080
      TEMPO 0702/0704 3SM RA BKN025 OVC035
     FM070500 23011KT 5SM -RA BR SCT008 BKN015 OVC035
     FM070900 27010KT 6SM BR VCSH BKN010 OVC030
     FM071200 35013KT P6SM BKN015 OVC035
     FM071600 02015G22KT P6SM SCT035 BKN050
     FM072300 04010KT P6SM SCT050=

USA.gov is the U.S. government's official web portal to all federal, state and local government web resources and services.